EST weather

Estacion De Bomberos Heliport
Bucaramanga, Santander Department, Colombia

Public forecast

Using degrees Celsius for public forecast. Weather courtesy of forecast.io.

Closest aviation weather report (METAR) to Estacion De Bomberos Heliport

Report is more than 2 hours old.

Closest report is Palonegro Airport, 3.4 nm (6.3 km) WNW. Retrieved 2019/10/18 06:00 UTC (4 hours ago):

SKBG 180600Z 18003KT 9999 SCT010 BKN070 21/21 A3003

Closest aviation forecast (TAF) to Estacion De Bomberos Heliport

Closest forecast is Palonegro Airport, 3.4 nm (6.3 km) WNW. Retrieved 2019/10/18 06:40 UTC (3 hours ago):

TAF SKBG 180430Z 1806/1906 VRB02KT 9999 SCT015 SCT090 TEMPO 1810/1814 3000 BR DZ SCT007 BECMG 1813/1815 32008KT TEMPO 1821/1823 DZRA SCT015CB TX27/1819Z TN18/1811Z